WetterOnline ( https://www.wetteronline.de )

Wetter aktuell Duisburg

Aktuelles Wetter: Essen (161m)

6-stündlich | Neueste Meldungen
Ortszeit Temperatur Wetter
Fr, 25.06. 8:00 14.5° C fast wolkenlos
Fr, 25.06. 2:00 15.7° C bewölkt
Do, 24.06. 20:00 19.2° C bedeckt
Do, 24.06. 14:00 20.0° C bewölkt
Do, 24.06. 8:00 14.8° C bewölkt
Do, 24.06. 2:00 15.6° C bedeckt
Mi, 23.06. 20:00 18.6° C leicht bewölkt
Mi, 23.06. 14:00 17.4° C bewölkt
Ortszeit Temperatur Wetter
Fr, 25.06. 11:10 18.0° C wolkig
Fr, 25.06. 11:00 18.2° C wolkig
Fr, 25.06. 10:50 18.2° C -
Fr, 25.06. 10:40 18.1° C -
Fr, 25.06. 10:30 17.6° C wolkig
Fr, 25.06. 10:20 17.6° C wolkig
Fr, 25.06. 10:00 16.5° C leicht bewölkt
Fr, 25.06. 9:30 16.6° C fast wolkenlos
Fr, 25.06. 9:00 15.9° C fast wolkenlos
Fr, 25.06. 8:30 15.0° C leicht bewölkt
Fr, 25.06. 8:00 14.5° C fast wolkenlos
Ortszeit Relative Feuchte Sichtweite
Fr, 25.06. 8:00 80% 14 km
Fr, 25.06. 2:00 85% 17 km
Do, 24.06. 20:00 65% 35 km
Do, 24.06. 14:00 65% 27 km
Do, 24.06. 8:00 86% 18 km
Do, 24.06. 2:00 79% 35 km
Mi, 23.06. 20:00 66% 30 km
Mi, 23.06. 14:00 66% 29 km
Ortszeit Relative Feuchte Sichtweite
Fr, 25.06. 11:10 64% -
Fr, 25.06. 11:00 67% 29 km
Fr, 25.06. 10:50 67% -
Fr, 25.06. 10:40 66% -
Fr, 25.06. 10:30 65% 27 km
Fr, 25.06. 10:20 65% -
Fr, 25.06. 10:00 66% 29 km
Fr, 25.06. 9:30 66% 23 km
Fr, 25.06. 9:00 68% 22 km
Fr, 25.06. 8:30 74% 17 km
Fr, 25.06. 8:00 80% 14 km
Ortszeit Niederschlagsmenge Niederschlagsart
Fr, 25.06. 8:00 0.0 l/m2 in 12 Std. -
Fr, 25.06. 2:00 0.0 l/m2 in 6 Std. -
Do, 24.06. 20:00 0.0 l/m2 in 12 Std. -
Do, 24.06. 14:00 0.0 l/m2 in 6 Std. -
Do, 24.06. 8:00 0.0 l/m2 in 12 Std. -
Do, 24.06. 2:00 0.0 l/m2 in 6 Std. -
Mi, 23.06. 20:00 0.1 l/m2 in 12 Std. -
Mi, 23.06. 14:00 0.1 l/m2 in 6 Std. Regen
Ortszeit Niederschlagsmenge Niederschlagsart
Fr, 25.06. 11:10 keine Meldung -
Fr, 25.06. 11:00 0.0 l/m2 in 1 Std. -
Fr, 25.06. 10:50 keine Meldung -
Fr, 25.06. 10:40 keine Meldung -
Fr, 25.06. 10:30 0.0 l/m2 in 1 Std. -
Fr, 25.06. 10:20 keine Meldung -
Fr, 25.06. 10:00 0.0 l/m2 in 1 Std. -
Fr, 25.06. 9:30 0.0 l/m2 in 1 Std. -
Fr, 25.06. 9:00 0.0 l/m2 in 1 Std. -
Fr, 25.06. 8:30 0.0 l/m2 in 1 Std. -
Fr, 25.06. 8:00 0.0 l/m2 in 1 Std. -
Ortszeit Stärke Spitze Richtung
km/h Bft. km/h Grad Sektor
Fr, 25.06. 8:00 9 2 19 210° SW
Fr, 25.06. 2:00 4 1 18 240° SW
Do, 24.06. 20:00 9 2 24 330° NW
Do, 24.06. 14:00 11 2 24 90° O
Do, 24.06. 8:00 13 3 24 50° NO
Do, 24.06. 2:00 13 3 26 30° NO
Mi, 23.06. 20:00 15 3 24 20° N
Mi, 23.06. 14:00 11 2 25 40° NO
Ortszeit Stärke Spitze Richtung
km/h Bft. km/h Grad Sektor
Fr, 25.06. 11:10 11 2 - 230° SW
Fr, 25.06. 11:00 11 2 25 230° SW
Fr, 25.06. 10:50 7 2 - 240° SW
Fr, 25.06. 10:40 9 2 - 200° S
Fr, 25.06. 10:30 13 3 24 230° SW
Fr, 25.06. 10:20 13 3 - 230° SW
Fr, 25.06. 10:00 11 2 25 230° SW
Fr, 25.06. 9:30 11 2 22 250° W
Fr, 25.06. 9:00 11 2 25 240° SW
Fr, 25.06. 8:30 13 3 26 230° SW
Fr, 25.06. 8:00 9 2 19 210° SW
Ortszeit Untergrenze Bedeckung Gattung
total tief tief mittel hoch
Fr, 25.06. 8:00 8100 m 1/8 0/8 - - -
Fr, 25.06. 2:00 1800 m 7/8 7/8 - - -
Do, 24.06. 20:00 900 m 8/8 8/8 - - -
Do, 24.06. 14:00 1500 m 7/8 7/8 - - -
Do, 24.06. 8:00 1500 m 7/8 7/8 - - -
Do, 24.06. 2:00 810 m 8/8 8/8 - - -
Mi, 23.06. 20:00 870 m 2/8 2/8 - - -
Mi, 23.06. 14:00 900 m 7/8 7/8 - - -
Ortszeit Bedeckungsgrad in Achtel und Wolkenuntergrenze
Fr, 25.06. 11:10 1(1230m) 5(3300m) 7(6300m)
Fr, 25.06. 11:00 4(1170m) 5(3300m) 7(6300m)
Fr, 25.06. 10:50 -
Fr, 25.06. 10:40 -
Fr, 25.06. 10:30 5(1170m) 7(8400m)
Fr, 25.06. 10:20 5(1170m) 7(8400m)
Fr, 25.06. 10:00 2(6600m) 4(7500m)
Fr, 25.06. 9:30 1(7800m)
Fr, 25.06. 9:00 2(8100m)
Fr, 25.06. 8:30 6(8100m)
Fr, 25.06. 8:00 1(8100m)
Ortszeit Luftdruck NN (hPa) Tendenz (hPa in 3 Std.)
Fr, 25.06. 8:00 1019 - 0,2
Fr, 25.06. 2:00 1019 0,0
Do, 24.06. 20:00 1018 - 0,3
Do, 24.06. 14:00 1019 - 0,3
Do, 24.06. 8:00 1020 - 0,3
Do, 24.06. 2:00 1021 + 0,5
Mi, 23.06. 20:00 1020 - 0,6
Mi, 23.06. 14:00 1021 + 0,2
Ortszeit Luftdruck NN (hPa) Tendenz (hPa in 3 Std.)
Fr, 25.06. 11:10 1018 keine Meldung
Fr, 25.06. 11:00 1018 + 0,1
Fr, 25.06. 10:50 1018 keine Meldung
Fr, 25.06. 10:40 1019 keine Meldung
Fr, 25.06. 10:30 1019 + 0,2
Fr, 25.06. 10:20 1019 keine Meldung
Fr, 25.06. 10:00 1019 + 0,1
Fr, 25.06. 9:30 1019 + 0,1
Fr, 25.06. 9:00 1019 - 0,1
Fr, 25.06. 8:30 1019 0,0
Fr, 25.06. 8:00 1019 - 0,2
Ortszeit Schneehöhe (cm)
Fr, 25.06. 8:00 -
Fr, 25.06. 2:00 -
Do, 24.06. 20:00 -
Do, 24.06. 14:00 -
Do, 24.06. 8:00 -
Do, 24.06. 2:00 -
Mi, 23.06. 20:00 -
Mi, 23.06. 14:00 -
Ortszeit Schneehöhe (cm)
Fr, 25.06. 11:10 -
Fr, 25.06. 11:00 -
Fr, 25.06. 10:50 -
Fr, 25.06. 10:40 -
Fr, 25.06. 10:30 -
Fr, 25.06. 10:20 -
Fr, 25.06. 10:00 -
Fr, 25.06. 9:30 -
Fr, 25.06. 9:00 -
Fr, 25.06. 8:30 -
Fr, 25.06. 8:00 -
Link zu dieser Seite / Seite empfehlen

Das Wetter in ...